Terminal Aerodrome Forecast
Issued by NWS

Home | Current Version | Previous Version | Text Only | Print | Product List | Glossary On
Versions: 1 2 3 4 5 6 7 8 9 10 11 12 13 14 15 16 17
447
FTUS46 KSEW 240520
TAFHQM
TAF
KHQM 240520Z 2406/2506 VRB03KT P6SM SCT020 OVC035
     FM241100 14003KT 2SM -SHRASN BR SCT008 BKN015 OVC025
     FM241800 08007KT 5SM -SHRA BR SCT012 BKN025
     FM250100 05005KT P6SM SCT025 BKN050=

USA.gov is the U.S. government's official web portal to all federal, state and local government web resources and services.